Time;durP1;ratioP1;P1;durP2;ratioP2;P2;SDS_P1;SDS_P2;PMS_P1;PMS_P2;Temp;Humidity;BMP_temperature;BMP_pressure;BME280_temperature;BME280_humidity;BME280_pressure;Samples;Min_cycle;Max_cycle;Signal;HPM_P1;HPM_P2
2024/02/17 00:02:01;;;;;;;1999.90;999.90;;;10.70;99.90;;;;;;5036720;28;20458;-71
2024/02/17 00:04:26;;;;;;;1999.90;999.90;;;10.70;99.90;;;;;;5036341;28;20176;-70
2024/02/17 00:06:52;;;;;;;1999.90;999.90;;;10.60;99.90;;;;;;5033628;28;20444;-71
2024/02/17 00:09:17;;;;;;;1999.90;999.90;;;10.70;99.90;;;;;;5034328;28;20177;-70
2024/02/17 00:11:43;;;;;;;1999.90;999.90;;;10.60;99.90;;;;;;5036347;28;20203;-71
2024/02/17 00:14:09;;;;;;;1999.90;999.90;;;10.60;99.90;;;;;;5037249;28;20203;-71
2024/02/17 00:16:34;;;;;;;1999.90;999.90;;;10.60;99.90;;;;;;5037419;28;20584;-72
2024/02/17 00:19:00;;;;;;;1999.90;999.90;;;10.60;99.90;;;;;;5036115;28;20209;-72
2024/02/17 00:21:25;;;;;;;1999.90;999.90;;;10.60;99.90;;;;;;5031062;28;20250;-72
2024/02/17 00:23:51;;;;;;;1999.90;999.90;;;10.60;99.90;;;;;;5031321;28;20641;-72
2024/02/17 00:26:19;;;;;;;1999.90;999.90;;;10.60;99.90;;;;;;5031986;28;20176;-72
2024/02/17 00:28:45;;;;;;;1999.90;999.90;;;10.60;99.90;;;;;;5031850;28;20175;-71
2024/02/17 00:31:10;;;;;;;1999.90;999.90;;;10.70;99.90;;;;;;5031525;28;20464;-72
2024/02/17 00:33:37;;;;;;;1999.90;999.90;;;10.50;99.90;;;;;;5031986;28;20199;-72
2024/02/17 00:36:04;;;;;;;1999.90;999.90;;;10.50;99.90;;;;;;5033187;28;20530;-71
2024/02/17 00:38:29;;;;;;;1999.90;999.90;;;10.50;99.90;;;;;;5032910;28;20401;-72
2024/02/17 00:40:56;;;;;;;1999.90;999.90;;;10.60;99.90;;;;;;5036552;28;20437;-72
2024/02/17 00:43:22;;;;;;;1999.90;999.90;;;10.50;99.90;;;;;;5033254;28;20261;-72
2024/02/17 00:45:48;;;;;;;1999.90;999.90;;;10.60;99.90;;;;;;5032099;28;20865;-71
2024/02/17 00:48:15;;;;;;;1999.90;999.90;;;10.40;99.90;;;;;;5031649;28;20168;-71
2024/02/17 00:50:41;;;;;;;1999.90;999.90;;;10.40;99.90;;;;;;5031204;28;20450;-70
2024/02/17 00:53:06;;;;;;;1999.90;999.90;;;10.40;99.90;;;;;;5031555;28;20959;-70
2024/02/17 00:55:32;;;;;;;1999.90;999.90;;;10.40;99.90;;;;;;5037814;28;20254;-71
2024/02/17 00:57:59;;;;;;;1999.90;999.90;;;10.40;99.90;;;;;;5038826;28;20188;-71
2024/02/17 01:00:26;;;;;;;1999.90;999.90;;;10.40;99.90;;;;;;5038396;28;20209;-71
2024/02/17 01:02:51;;;;;;;1999.90;999.90;;;10.60;99.90;;;;;;5038508;28;20410;-71
2024/02/17 01:05:17;;;;;;;1999.90;999.90;;;10.60;99.90;;;;;;5034029;28;20413;-71
2024/02/17 01:07:42;;;;;;;1999.90;999.90;;;10.50;99.90;;;;;;5031502;28;20168;-71
2024/02/17 01:10:08;;;;;;;1999.90;999.90;;;10.60;99.90;;;;;;5031563;28;20305;-71
2024/02/17 01:12:34;;;;;;;1999.90;999.90;;;10.60;99.90;;;;;;5037102;28;20176;-72
2024/02/17 01:14:59;;;;;;;1999.90;999.90;;;10.60;99.90;;;;;;5039061;28;20179;-71
2024/02/17 01:17:25;;;;;;;1999.90;999.90;;;10.60;99.90;;;;;;5031379;28;20161;-71
2024/02/17 01:19:50;;;;;;;1999.90;999.90;;;10.80;99.90;;;;;;5032507;28;20171;-71
2024/02/17 01:22:16;;;;;;;1999.90;999.90;;;10.70;99.90;;;;;;5036619;28;20180;-71
2024/02/17 01:24:42;;;;;;;1999.90;999.90;;;10.70;99.90;;;;;;5036850;28;20191;-71
2024/02/17 01:27:08;;;;;;;1999.90;999.90;;;10.80;99.90;;;;;;5037821;28;20182;-71
2024/02/17 01:29:34;;;;;;;1999.90;999.90;;;10.90;99.90;;;;;;5037223;28;20410;-71
2024/02/17 01:32:00;;;;;;;1999.90;999.90;;;10.90;99.90;;;;;;5032998;28;20454;-71
2024/02/17 01:34:26;;;;;;;1999.90;999.90;;;11.00;99.90;;;;;;5038163;28;20912;-70
2024/02/17 01:36:51;;;;;;;1999.90;999.90;;;11.00;99.90;;;;;;5034879;28;20175;-72
2024/02/17 01:39:17;;;;;;;1999.90;999.90;;;11.10;99.90;;;;;;5035250;28;20161;-70
2024/02/17 01:41:42;;;;;;;1999.90;999.90;;;11.00;99.90;;;;;;5019128;28;20201;-71
2024/02/17 01:44:08;;;;;;;1999.90;999.90;;;11.00;99.90;;;;;;5020223;28;20184;-71
2024/02/17 01:46:33;;;;;;;1999.90;999.90;;;11.00;99.90;;;;;;5019946;28;20215;-71
2024/02/17 01:48:59;;;;;;;1999.90;999.90;;;11.00;99.90;;;;;;5018852;28;20189;-71
2024/02/17 01:51:26;;;;;;;1999.90;999.90;;;11.10;99.90;;;;;;5014528;28;20204;-71
2024/02/17 01:53:53;;;;;;;1999.90;999.90;;;11.10;99.90;;;;;;5014831;28;20409;-72
2024/02/17 01:56:20;;;;;;;1999.90;999.90;;;11.20;99.90;;;;;;5014667;28;20422;-72
2024/02/17 01:58:47;;;;;;;1999.90;999.90;;;11.30;99.90;;;;;;5016428;28;20912;-72
2024/02/17 02:01:14;;;;;;;1999.90;999.90;;;11.40;99.90;;;;;;5019208;28;20451;-72
2024/02/17 02:03:39;;;;;;;1999.90;999.90;;;11.40;99.90;;;;;;5014672;28;20416;-71
2024/02/17 02:06:05;;;;;;;1999.90;999.90;;;11.40;99.90;;;;;;5014251;28;20423;-71
2024/02/17 02:08:32;;;;;;;1999.90;999.90;;;11.30;99.90;;;;;;5014266;28;20176;-71
2024/02/17 02:11:00;;;;;;;1999.90;999.90;;;11.30;99.90;;;;;;5014289;28;20295;-71
2024/02/17 02:13:26;;;;;;;1999.90;999.90;;;11.30;99.90;;;;;;5014319;28;20773;-71
2024/02/17 02:15:52;;;;;;;1999.90;999.90;;;11.30;99.90;;;;;;5019178;28;20403;-71
2024/02/17 02:18:18;;;;;;;1999.90;999.90;;;11.30;99.90;;;;;;5017293;28;20514;-71
2024/02/17 02:20:44;;;;;;;1999.90;999.90;;;11.30;99.90;;;;;;5015966;28;20189;-71
2024/02/17 02:23:10;;;;;;;1999.90;999.90;;;11.30;99.90;;;;;;5013963;28;20419;-72
2024/02/17 02:25:39;;;;;;;1999.90;999.90;;;11.30;99.90;;;;;;5018310;28;20414;-72
2024/02/17 02:28:05;;;;;;;1999.90;999.90;;;11.30;99.90;;;;;;5018567;28;20174;-72
2024/02/17 02:30:32;;;;;;;1999.90;999.90;;;11.30;99.90;;;;;;5018458;28;20456;-72
2024/02/17 02:33:00;;;;;;;1999.90;999.90;;;11.30;99.90;;;;;;5016580;28;20441;-72
2024/02/17 02:35:26;;;;;;;1999.90;999.90;;;11.30;99.90;;;;;;5015053;28;20635;-72
2024/02/17 02:37:52;;;;;;;1999.90;999.90;;;11.30;99.90;;;;;;5015766;28;20496;-71
2024/02/17 02:40:18;;;;;;;1999.90;999.90;;;11.20;99.90;;;;;;5014953;28;20436;-71
2024/02/17 02:42:43;;;;;;;1999.90;999.90;;;11.20;99.90;;;;;;5013735;28;20213;-71
2024/02/17 02:45:09;;;;;;;1999.90;999.90;;;11.10;99.90;;;;;;5013472;28;20707;-71
2024/02/17 02:47:35;;;;;;;1999.90;999.90;;;11.10;99.90;;;;;;5013143;28;20255;-71
2024/02/17 02:50:00;;;;;;;1999.90;999.90;;;10.90;99.90;;;;;;5013211;28;20491;-71
2024/02/17 02:52:26;;;;;;;1999.90;999.90;;;11.00;99.90;;;;;;5016564;28;20629;-71
2024/02/17 02:54:51;;;;;;;1999.90;999.90;;;11.00;99.90;;;;;;5019861;28;20175;-71
2024/02/17 02:57:17;;;;;;;1999.90;999.90;;;10.90;99.90;;;;;;5019159;28;20184;-71
2024/02/17 02:59:43;;;;;;;1999.90;999.90;;;10.70;99.90;;;;;;5013620;28;20255;-72
2024/02/17 03:02:09;;;;;;;1999.90;999.90;;;10.90;99.90;;;;;;5014877;28;20204;-70
2024/02/17 03:04:34;;;;;;;1999.90;999.90;;;10.90;99.90;;;;;;5017168;28;20170;-70
2024/02/17 03:07:00;;;;;;;1999.90;999.90;;;10.80;99.90;;;;;;5017540;28;20173;-71
2024/02/17 03:09:26;;;;;;;1999.90;999.90;;;10.80;99.90;;;;;;5017376;28;20177;-71
2024/02/17 03:11:51;;;;;;;1999.90;999.90;;;10.90;99.90;;;;;;5015191;28;20243;-72
2024/02/17 03:14:17;;;;;;;1999.90;999.90;;;10.90;99.90;;;;;;5014101;28;20170;-72
2024/02/17 03:16:43;;;;;;;1999.90;999.90;;;11.00;99.90;;;;;;5013841;28;20176;-71
2024/02/17 03:19:08;;;;;;;1999.90;999.90;;;10.90;99.90;;;;;;5013377;28;20633;-71
2024/02/17 03:21:38;;;;;;;1999.90;999.90;;;10.90;99.90;;;;;;5013281;28;20197;-71
2024/02/17 03:24:04;;;;;;;1999.90;999.90;;;11.00;99.90;;;;;;5012947;28;20176;-70
2024/02/17 03:26:29;;;;;;;1999.90;999.90;;;10.90;99.90;;;;;;5013685;28;20470;-71
2024/02/17 03:28:55;;;;;;;1999.90;999.90;;;11.00;99.90;;;;;;5014030;28;20423;-71
2024/02/17 03:31:23;;;;;;;1999.90;999.90;;;11.00;99.90;;;;;;5016292;28;20205;-72
2024/02/17 03:33:48;;;;;;;1999.90;999.90;;;11.00;99.90;;;;;;5017533;28;20221;-70
2024/02/17 03:36:14;;;;;;;1999.90;999.90;;;11.00;99.90;;;;;;5014340;28;20814;-71
2024/02/17 03:38:39;;;;;;;1999.90;999.90;;;11.00;99.90;;;;;;5014481;28;20739;-71
2024/02/17 03:41:05;;;;;;;1999.90;999.90;;;10.90;99.90;;;;;;5016133;28;20196;-71
2024/02/17 03:43:31;;;;;;;1999.90;999.90;;;10.90;99.90;;;;;;5017731;28;20184;-71
2024/02/17 03:45:56;;;;;;;1999.90;999.90;;;10.90;99.90;;;;;;5017346;28;20775;-71
2024/02/17 03:48:22;;;;;;;1999.90;999.90;;;10.90;99.90;;;;;;5012553;28;20176;-70
2024/02/17 03:50:50;;;;;;;1999.90;999.90;;;10.80;99.90;;;;;;5012623;28;20231;-71
2024/02/17 03:53:17;;;;;;;1999.90;999.90;;;10.80;99.90;;;;;;5013701;28;20169;-71
2024/02/17 03:55:43;;;;;;;1999.90;999.90;;;10.70;99.90;;;;;;5014217;28;20407;-71
2024/02/17 03:58:08;;;;;;;1999.90;999.90;;;10.70;99.90;;;;;;5013764;28;20408;-71
2024/02/17 04:00:34;;;;;;;1999.90;999.90;;;10.80;99.90;;;;;;5013519;28;20243;-70
2024/02/17 04:03:00;;;;;;;1999.90;999.90;;;10.80;99.90;;;;;;5011779;28;20172;-71
2024/02/17 04:05:25;;;;;;;1999.90;999.90;;;10.80;99.90;;;;;;5013219;28;20652;-71
2024/02/17 04:07:51;;;;;;;1999.90;999.90;;;10.80;99.90;;;;;;5016562;28;20222;-71
2024/02/17 04:10:16;;;;;;;1999.90;999.90;;;10.80;99.90;;;;;;5017552;28;20200;-71
2024/02/17 04:12:42;;;;;;;1999.90;999.90;;;10.80;99.90;;;;;;5016870;28;20561;-71
2024/02/17 04:15:08;;;;;;;1999.90;999.90;;;10.80;99.90;;;;;;5016972;28;20172;-71
2024/02/17 04:17:34;;;;;;;1999.90;999.90;;;10.80;99.90;;;;;;5012977;28;20260;-70
2024/02/17 04:19:59;;;;;;;1999.90;999.90;;;10.90;99.90;;;;;;5012195;28;20923;-70
2024/02/17 04:22:25;;;;;;;1999.90;999.90;;;10.70;99.90;;;;;;5012163;28;20641;-70
2024/02/17 04:24:51;;;;;;;1999.90;999.90;;;10.80;99.90;;;;;;5013365;28;20541;-71
2024/02/17 04:27:17;;;;;;;1999.90;999.90;;;10.80;99.90;;;;;;5015997;28;20164;-72
2024/02/17 04:29:42;;;;;;;1999.90;999.90;;;10.70;99.90;;;;;;5016280;28;20399;-72
2024/02/17 04:32:08;;;;;;;1999.90;999.90;;;10.70;99.90;;;;;;5014834;28;20199;-70
2024/02/17 04:34:34;;;;;;;1999.90;999.90;;;10.70;99.90;;;;;;5011996;28;20169;-71
2024/02/17 04:37:01;;;;;;;1999.90;999.90;;;10.70;99.90;;;;;;5012024;28;20212;-70
2024/02/17 04:39:27;;;;;;;1999.90;999.90;;;10.70;99.90;;;;;;5011576;28;20400;-70
2024/02/17 04:41:54;;;;;;;1999.90;999.90;;;10.70;99.90;;;;;;5014660;28;20437;-71
2024/02/17 04:44:20;;;;;;;1999.90;999.90;;;10.60;99.90;;;;;;5016257;28;20183;-71
2024/02/17 04:46:46;;;;;;;1999.90;999.90;;;10.60;99.90;;;;;;5013423;28;20498;-71
2024/02/17 04:49:11;;;;;;;1999.90;999.90;;;10.60;99.90;;;;;;5013759;28;20474;-71
2024/02/17 04:51:37;;;;;;;1999.90;999.90;;;10.50;99.90;;;;;;5015154;28;20601;-70
2024/02/17 04:54:03;;;;;;;1999.90;999.90;;;10.50;99.90;;;;;;5015154;28;20665;-71
2024/02/17 04:56:29;;;;;;;1999.90;999.90;;;10.50;99.90;;;;;;5016869;28;20179;-71
2024/02/17 04:58:54;;;;;;;1999.90;999.90;;;10.50;99.90;;;;;;5012639;28;20498;-70
2024/02/17 05:01:22;;;;;;;1999.90;999.90;;;10.50;99.90;;;;;;5011255;28;20319;-71
2024/02/17 05:03:48;;;;;;;1999.90;999.90;;;10.50;99.90;;;;;;5012235;28;20192;-71
2024/02/17 05:06:16;;;;;;;1999.90;999.90;;;10.50;99.90;;;;;;5012678;28;20412;-70
2024/02/17 05:08:43;;;;;;;1999.90;999.90;;;10.60;99.90;;;;;;5012787;28;20438;-71
2024/02/17 05:11:09;;;;;;;1999.90;999.90;;;10.50;99.90;;;;;;5016060;28;20498;-70
2024/02/17 05:13:35;;;;;;;1999.90;999.90;;;10.50;99.90;;;;;;5016412;28;20418;-72
2024/02/17 05:16:01;;;;;;;1999.90;999.90;;;10.50;99.90;;;;;;5015886;28;20394;-72
2024/02/17 05:18:26;;;;;;;1999.90;999.90;;;10.50;99.90;;;;;;5016848;28;20179;-70
2024/02/17 05:20:52;;;;;;;1999.90;999.90;;;;;;;;;;5021225;28;20195;-71
2024/02/17 05:23:18;;;;;;;1999.90;999.90;;;10.50;99.90;;;;;;5018002;28;20676;-71
2024/02/17 05:25:45;;;;;;;1999.90;999.90;;;10.50;99.90;;;;;;5019216;28;20486;-72
2024/02/17 05:28:10;;;;;;;1999.90;999.90;;;10.70;99.90;;;;;;5015760;28;20228;-71
2024/02/17 05:30:36;;;;;;;1999.90;999.90;;;10.60;99.90;;;;;;5016814;28;20491;-71
2024/02/17 05:33:01;;;;;;;1999.90;999.90;;;10.50;99.90;;;;;;5016119;28;20231;-71
2024/02/17 05:35:27;;;;;;;1999.90;999.90;;;10.50;99.90;;;;;;5017448;28;20519;-71
2024/02/17 05:37:52;;;;;;;1999.90;999.90;;;10.60;99.90;;;;;;5019141;28;20178;-70
2024/02/17 05:40:18;;;;;;;1999.90;999.90;;;10.60;99.90;;;;;;5015901;28;20196;-70
2024/02/17 05:42:44;;;;;;;1999.90;999.90;;;10.40;99.90;;;;;;5014503;28;20168;-71
2024/02/17 05:45:09;;;;;;;1999.90;999.90;;;10.40;99.90;;;;;;5015649;28;20203;-70
2024/02/17 05:47:35;;;;;;;1999.90;999.90;;;10.50;99.90;;;;;;5019325;28;20177;-70
2024/02/17 05:50:03;;;;;;;1999.90;999.90;;;10.50;99.90;;;;;;5014242;28;20399;-70
2024/02/17 05:52:28;;;;;;;1999.90;999.90;;;10.60;99.90;;;;;;5019333;28;20209;-70
2024/02/17 05:54:54;;;;;;;1999.90;999.90;;;10.50;99.90;;;;;;5014724;28;20470;-70
2024/02/17 05:57:20;;;;;;;1999.90;999.90;;;10.40;99.90;;;;;;5014718;28;20639;-70
2024/02/17 05:59:45;;;;;;;1999.90;999.90;;;10.70;99.90;;;;;;5014280;28;20180;-71
2024/02/17 06:02:11;;;;;;;1999.90;999.90;;;10.50;99.90;;;;;;5014605;28;20571;-71
2024/02/17 06:04:36;;;;;;;1999.90;999.90;;;10.50;99.90;;;;;;5014605;28;20198;-71
2024/02/17 06:07:02;;;;;;;1999.90;999.90;;;10.50;99.90;;;;;;5014635;28;20180;-71
2024/02/17 06:09:28;;;;;;;1999.90;999.90;;;10.40;99.90;;;;;;5014168;28;20610;-70
2024/02/17 06:11:53;;;;;;;1999.90;999.90;;;10.40;99.90;;;;;;5013881;28;20215;-71
2024/02/17 06:14:21;;;;;;;1999.90;999.90;;;10.40;99.90;;;;;;5016055;28;20173;-71
2024/02/17 06:16:47;;;;;;;1999.90;999.90;;;10.40;99.90;;;;;;5017327;28;20657;-71
2024/02/17 06:21:56;;;;;;;1999.90;999.90;;;10.40;99.90;;;;;;5017900;28;20200;-70
2024/02/17 06:24:22;;;;;;;1999.90;999.90;;;10.50;99.90;;;;;;5019343;28;20918;-70
2024/02/17 06:26:48;;;;;;;1999.90;999.90;;;10.30;99.90;;;;;;5020090;28;20173;-70
2024/02/17 06:29:13;;;;;;;1999.90;999.90;;;10.40;99.90;;;;;;5021471;28;20213;-70
2024/02/17 06:31:40;;;;;;;1999.90;999.90;;;10.40;99.90;;;;;;5020215;28;20208;-70
2024/02/17 06:34:06;;;;;;;1999.90;999.90;;;10.40;99.90;;;;;;5019413;28;20207;-70
2024/02/17 06:36:32;;;;;;;1999.90;999.90;;;10.40;99.90;;;;;;5015867;28;20411;-70
2024/02/17 06:38:57;;;;;;;1999.90;999.90;;;10.30;99.90;;;;;;5015908;28;20407;-70
2024/02/17 06:41:23;;;;;;;1999.90;999.90;;;10.30;99.90;;;;;;5019510;28;20285;-70
2024/02/17 06:43:50;;;;;;;1999.90;999.90;;;10.30;99.90;;;;;;5020031;28;20227;-70
2024/02/17 06:46:16;;;;;;;1999.90;999.90;;;10.10;99.90;;;;;;5020058;28;20181;-70
2024/02/17 06:48:42;;;;;;;1999.90;999.90;;;10.30;99.90;;;;;;5017016;28;20439;-70
2024/02/17 06:51:11;;;;;;;1999.90;999.90;;;10.30;99.90;;;;;;5019013;28;20462;-70
2024/02/17 06:53:37;;;;;;;1999.90;999.90;;;10.20;99.90;;;;;;5017866;28;20402;-70
2024/02/17 06:56:03;;;;;;;1999.90;999.90;;;10.20;99.90;;;;;;5015446;28;20407;-70
2024/02/17 06:58:29;;;;;;;1999.90;999.90;;;10.20;99.90;;;;;;5014664;28;20173;-70
2024/02/17 07:00:54;;;;;;;1999.90;999.90;;;10.20;99.90;;;;;;5013775;28;20446;-70
2024/02/17 07:03:20;;;;;;;1999.90;999.90;;;10.10;99.90;;;;;;5013335;28;20229;-70
2024/02/17 07:05:45;;;;;;;1999.90;999.90;;;10.20;99.90;;;;;;5019865;28;20175;-70
2024/02/17 07:08:11;;;;;;;1999.90;999.90;;;10.20;99.90;;;;;;5017175;28;20175;-70
2024/02/17 07:10:38;;;;;;;1999.90;999.90;;;10.10;99.90;;;;;;5013665;28;20664;-70
2024/02/17 07:13:05;;;;;;;1999.90;999.90;;;10.20;99.90;;;;;;5014706;28;20440;-70
2024/02/17 07:15:31;;;;;;;1999.90;999.90;;;10.20;99.90;;;;;;5016420;28;20484;-70
2024/02/17 07:18:01;;;;;;;1999.90;999.90;;;10.20;99.90;;;;;;5019934;28;20848;-70
2024/02/17 07:20:28;;;;;;;1999.90;999.90;;;10.30;99.90;;;;;;5018770;28;20200;-70
2024/02/17 07:22:53;;;;;;;1999.90;999.90;;;10.30;99.90;;;;;;5018971;28;20877;-70
2024/02/17 07:25:19;;;;;;;1999.90;999.90;;;10.30;99.90;;;;;;5015635;28;20408;-69
2024/02/17 07:27:46;;;;;;;1999.90;999.90;;;10.30;99.90;;;;;;5015109;28;20171;-70
2024/02/17 07:30:12;;;;;;;1999.90;999.90;;;10.30;99.90;;;;;;5015036;28;20196;-70
2024/02/17 07:32:38;;;;;;;1999.90;999.90;;;10.20;99.90;;;;;;5014677;28;20467;-70
2024/02/17 07:35:04;;;;;;;1999.90;999.90;;;10.00;99.90;;;;;;5019147;28;20868;-70
2024/02/17 07:37:30;;;;;;;1999.90;999.90;;;10.20;99.90;;;;;;5019521;28;20647;-70
2024/02/17 07:39:55;;;;;;;1999.90;999.90;;;10.10;99.90;;;;;;5016372;28;20415;-70
2024/02/17 07:42:22;;;;;;;1999.90;999.90;;;10.40;99.90;;;;;;5015430;28;20184;-70
2024/02/17 07:44:48;;;;;;;1999.90;999.90;;;10.20;99.90;;;;;;5014614;28;20202;-70
2024/02/17 07:47:14;;;;;;;1999.90;999.90;;;10.30;99.90;;;;;;5015275;28;20908;-70
2024/02/17 07:49:40;;;;;;;1999.90;999.90;;;10.20;99.90;;;;;;5015434;28;20176;-70
2024/02/17 07:52:07;;;;;;;1999.90;999.90;;;10.20;99.90;;;;;;5015672;28;20555;-70
2024/02/17 07:54:33;;;;;;;1999.90;999.90;;;10.20;99.90;;;;;;5016100;28;20412;-69
2024/02/17 07:56:58;;;;;;;1999.90;999.90;;;10.20;99.90;;;;;;5016315;28;20495;-70
2024/02/17 07:59:24;;;;;;;1999.90;999.90;;;10.30;99.90;;;;;;5017543;28;20404;-69
2024/02/17 08:01:49;;;;;;;1999.90;999.90;;;10.30;99.90;;;;;;5014439;28;20324;-69
2024/02/17 08:04:15;;;;;;;1999.90;999.90;;;10.50;99.90;;;;;;5014887;28;20258;-69
2024/02/17 08:06:41;;;;;;;1999.90;999.90;;;10.30;99.90;;;;;;5015129;28;20183;-69
2024/02/17 08:09:07;;;;;;;1999.90;999.90;;;10.20;99.90;;;;;;5016850;28;20801;-70
2024/02/17 08:11:35;;;;;;;1999.90;999.90;;;10.40;99.90;;;;;;5017159;28;20222;-69
2024/02/17 08:14:00;;;;;;;1999.90;999.90;;;10.30;99.90;;;;;;5014283;28;20411;-69
2024/02/17 08:16:26;;;;;;;1999.90;999.90;;;10.40;99.90;;;;;;5013956;28;20977;-69
2024/02/17 08:18:52;;;;;;;1999.90;999.90;;;10.40;99.90;;;;;;5013260;28;20418;-70
2024/02/17 08:21:17;;;;;;;1999.90;999.90;;;10.40;99.90;;;;;;5014991;28;20193;-69
2024/02/17 08:23:43;;;;;;;1999.90;999.90;;;10.30;99.90;;;;;;5015757;28;20242;-69
2024/02/17 08:26:11;;;;;;;1999.90;999.90;;;10.50;99.90;;;;;;5016394;28;20234;-70
2024/02/17 08:28:38;;;;;;;1999.90;999.90;;;10.50;99.90;;;;;;5018894;28;20958;-70
2024/02/17 08:31:04;;;;;;;1999.90;999.90;;;10.40;99.90;;;;;;5018162;28;20453;-69
2024/02/17 08:33:29;;;;;;;1999.90;999.90;;;10.50;99.90;;;;;;5013300;28;20409;-69
2024/02/17 08:35:55;;;;;;;1999.90;999.90;;;10.40;99.90;;;;;;5012363;28;20569;-69
2024/02/17 08:38:20;;;;;;;1999.90;999.90;;;10.50;99.90;;;;;;5015894;28;20193;-70
2024/02/17 08:40:46;;;;;;;1999.90;999.90;;;10.60;99.90;;;;;;5014739;28;20231;-69
2024/02/17 08:43:11;;;;;;;1999.90;999.90;;;10.50;99.90;;;;;;5016099;28;20191;-69
2024/02/17 08:45:37;;;;;;;1999.90;999.90;;;10.60;99.90;;;;;;5019586;28;20208;-70
2024/02/17 08:48:03;;;;;;;1999.90;999.90;;;10.60;99.90;;;;;;5023176;28;20176;-70
2024/02/17 08:50:28;;;;;;;1999.90;999.90;;;10.60;99.90;;;;;;5021791;28;20199;-69
2024/02/17 08:52:54;;;;;;;1999.90;999.90;;;10.50;99.90;;;;;;5016194;28;20402;-69
2024/02/17 08:55:20;;;;;;;1999.90;999.90;;;10.70;99.90;;;;;;5016247;28;20180;-70
2024/02/17 08:57:46;;;;;;;1999.90;999.90;;;10.70;99.90;;;;;;5016209;28;20240;-69
2024/02/17 09:00:12;;;;;;;1999.90;999.90;;;10.70;99.90;;;;;;5016009;28;20736;-69
2024/02/17 09:02:38;;;;;;;1999.90;999.90;;;10.70;99.90;;;;;;5013678;28;20791;-70
2024/02/17 09:05:05;;;;;;;1999.90;999.90;;;10.70;99.90;;;;;;5015070;28;20406;-70
2024/02/17 09:07:31;;;;;;;1999.90;999.90;;;10.70;99.90;;;;;;5015973;28;20532;-71
2024/02/17 09:09:56;;;;;;;1999.90;999.90;;;10.70;99.90;;;;;;5018725;28;20411;-70
2024/02/17 09:12:22;;;;;;;1999.90;999.90;;;10.60;99.90;;;;;;5018587;28;20207;-70
2024/02/17 09:14:48;;;;;;;1999.90;999.90;;;10.70;99.90;;;;;;5018053;28;20176;-71
2024/02/17 09:17:16;;;;;;;1999.90;999.90;;;10.70;99.90;;;;;;5018467;28;20546;-70
2024/02/17 09:19:41;;;;;;;1999.90;999.90;;;10.70;99.90;;;;;;5018400;28;20422;-71
2024/02/17 09:22:07;;;;;;;1999.90;999.90;;;10.80;99.90;;;;;;5017247;28;20927;-70
2024/02/17 09:24:32;;;;;;;1999.90;999.90;;;10.80;99.90;;;;;;5016221;28;20411;-70
2024/02/17 09:27:01;;;;;;;1999.90;999.90;;;10.80;99.90;;;;;;5013875;28;20231;-72
2024/02/17 09:29:27;;;;;;;1999.90;999.90;;;10.80;99.90;;;;;;5015744;28;20267;-71
2024/02/17 09:31:53;;;;;;;1999.90;999.90;;;10.80;99.90;;;;;;5015705;28;20573;-69
2024/02/17 09:34:19;;;;;;;1999.90;999.90;;;10.90;99.90;;;;;;5019291;28;20463;-71
2024/02/17 09:36:44;;;;;;;1999.90;999.90;;;10.80;99.90;;;;;;5018128;28;20312;-71
2024/02/17 09:39:11;;;;;;;1999.90;999.90;;;10.90;99.90;;;;;;5020357;28;20216;-70
2024/02/17 09:41:37;;;;;;;1999.90;999.90;;;;;;;;;;5018480;28;20208;-71
2024/02/17 09:44:03;;;;;;;1999.90;999.90;;;10.80;99.90;;;;;;5015198;28;20418;-71
2024/02/17 09:46:28;;;;;;;1999.90;999.90;;;10.80;99.90;;;;;;5014528;28;20426;-71
2024/02/17 09:48:58;;;;;;;1999.90;999.90;;;10.80;99.90;;;;;;5015828;28;20183;-75
2024/02/17 09:51:24;;;;;;;1999.90;999.90;;;11.00;99.90;;;;;;5016350;28;20626;-70
2024/02/17 09:53:52;;;;;;;1999.90;999.90;;;10.90;99.90;;;;;;5014936;28;20411;-70
2024/02/17 09:56:18;;;;;;;1999.90;999.90;;;10.90;99.90;;;;;;5013750;28;20439;-72
2024/02/17 09:58:45;;;;;;;1999.90;999.90;;;;;;;;;;5021254;28;20405;-70
2024/02/17 10:01:11;;;;;;;1999.90;999.90;;;10.90;99.90;;;;;;5020222;28;20445;-70
2024/02/17 10:03:40;;;;;;;1999.90;999.90;;;11.10;99.90;;;;;;5020804;28;20405;-72
2024/02/17 10:06:13;;;;;;;1999.90;999.90;;;10.90;99.90;;;;;;5019597;28;20894;-71
2024/02/17 10:08:41;;;;;;;1999.90;999.90;;;10.90;99.90;;;;;;5014784;28;20401;-70
2024/02/17 10:11:10;;;;;;;1999.90;999.90;;;11.00;99.90;;;;;;5015098;28;20487;-70
2024/02/17 10:13:37;;;;;;;1999.90;999.90;;;11.10;99.90;;;;;;5014812;28;20415;-70
2024/02/17 10:16:13;;;;;;;1999.90;999.90;;;11.00;99.90;;;;;;5014511;28;20404;-70
2024/02/17 10:18:42;;;;;;;1999.90;999.90;;;11.20;99.90;;;;;;5015658;28;20452;-70
2024/02/17 10:21:09;;;;;;;1999.90;999.90;;;11.10;99.90;;;;;;5014199;28;20428;-71
2024/02/17 10:23:35;;;;;;;1999.90;999.90;;;11.10;99.90;;;;;;5013543;28;20490;-71
2024/02/17 10:26:01;;;;;;;1999.90;999.90;;;11.10;99.90;;;;;;5014077;28;20557;-72
2024/02/17 10:28:27;;;;;;;1999.90;999.90;;;11.10;99.90;;;;;;5014528;28;20165;-71
2024/02/17 10:30:55;;;;;;;1999.90;999.90;;;11.10;99.90;;;;;;5013901;28;20496;-70
2024/02/17 10:33:21;;;;;;;1999.90;999.90;;;11.20;99.90;;;;;;5013999;28;20772;-71
2024/02/17 10:35:47;;;;;;;1999.90;999.90;;;11.10;99.90;;;;;;5014046;28;20415;-70
2024/02/17 10:38:13;;;;;;;1999.90;999.90;;;11.10;99.90;;;;;;5014038;28;20169;-71
2024/02/17 10:40:39;;;;;;;1999.90;999.90;;;11.10;99.90;;;;;;5015372;28;20435;-71
2024/02/17 10:43:05;;;;;;;1999.90;999.90;;;11.10;99.90;;;;;;5014521;28;20180;-71
2024/02/17 10:45:31;;;;;;;1999.90;999.90;;;11.10;99.90;;;;;;5013856;28;20423;-71
2024/02/17 10:48:03;;;;;;;1999.90;999.90;;;11.10;99.90;;;;;;5013936;28;20422;-71
2024/02/17 10:50:33;;;;;;;1999.90;999.90;;;11.10;99.90;;;;;;5015155;28;20439;-69
2024/02/17 10:53:11;;;;;;;1999.90;999.90;;;11.20;99.90;;;;;;5013065;28;20411;-72
2024/02/17 10:55:39;;;;;;;1999.90;999.90;;;11.20;99.90;;;;;;5014553;28;20419;-70
2024/02/17 10:58:14;;;;;;;1999.90;999.90;;;11.10;99.90;;;;;;5014218;28;20416;-71
2024/02/17 11:00:48;;;;;;;1999.90;999.90;;;11.20;99.90;;;;;;5013544;28;20488;-70
2024/02/17 11:03:17;;;;;;;1999.90;999.90;;;11.20;99.90;;;;;;5013963;28;20903;-69
2024/02/17 11:05:47;;;;;;;1999.90;999.90;;;11.20;99.90;;;;;;5014639;28;20857;-70
2024/02/17 11:08:13;;;;;;;1999.90;999.90;;;11.20;99.90;;;;;;5018000;28;20799;-71
2024/02/17 11:10:43;;;;;;;1999.90;999.90;;;11.20;99.90;;;;;;5022440;28;20464;-70
2024/02/17 11:13:22;;;;;;;1999.90;999.90;;;11.20;99.90;;;;;;5023122;28;20801;-71
2024/02/17 11:16:01;;;;;;;1999.90;999.90;;;11.00;99.90;;;;;;5022365;28;20480;-71
2024/02/17 11:18:28;;;;;;;1999.90;999.90;;;11.10;99.90;;;;;;5023430;28;20829;-71
2024/02/17 11:20:54;;;;;;;1999.90;999.90;;;11.20;99.90;;;;;;5022738;28;20424;-70
2024/02/17 11:23:20;;;;;;;1999.90;999.90;;;;;;;;;;5023092;28;20418;-71
2024/02/17 11:25:46;;;;;;;1999.90;999.90;;;11.40;99.90;;;;;;5021391;28;20415;-71
2024/02/17 11:28:22;;;;;;;1999.90;999.90;;;11.40;99.90;;;;;;5023662;28;20419;-71
2024/02/17 11:30:56;;;;;;;1999.90;999.90;;;11.60;99.90;;;;;;5021908;28;20216;-71
2024/02/17 11:33:30;;;;;;;1999.90;999.90;;;11.60;99.90;;;;;;5023106;28;20405;-71
2024/02/17 11:35:57;;;;;;;1999.90;999.90;;;11.60;99.90;;;;;;5022933;28;20785;-70
2024/02/17 11:38:27;;;;;;;1999.90;999.90;;;11.50;99.90;;;;;;5021721;28;20409;-71
2024/02/17 11:40:54;;;;;;;1999.90;999.90;;;11.50;99.90;;;;;;5022770;28;20417;-71
2024/02/17 11:43:25;;;;;;;1999.90;999.90;;;11.60;99.90;;;;;;5021316;28;20499;-71
2024/02/17 11:45:51;;;;;;;1999.90;999.90;;;11.70;99.90;;;;;;5020699;28;20403;-71
2024/02/17 11:48:18;;;;;;;1999.90;999.90;;;11.60;99.90;;;;;;5022047;28;20415;-71
2024/02/17 11:50:44;;;;;;;1999.90;999.90;;;11.80;99.90;;;;;;5020472;28;20456;-70
2024/02/17 11:53:10;;;;;;;1999.90;999.90;;;11.80;99.90;;;;;;5020676;28;20396;-71
2024/02/17 11:55:36;;;;;;;1999.90;999.90;;;11.90;99.90;;;;;;5019846;28;20456;-71
2024/02/17 11:58:08;;;;;;;1999.90;999.90;;;11.90;99.90;;;;;;5013229;28;20169;-69
2024/02/17 12:00:38;;;;;;;1999.90;999.90;;;11.80;99.90;;;;;;5012697;28;20448;-70